Welcome to our new website - Welkom op onze vernieuwde website - Bienvenue sur notre nouveau site web - Willkommen auf unserer neuen Website
Check our progress frequently. Prüfen Sie unsere Fortschritte regelmäßig. Consultez notre progression fréquemment. Komt u straks nog eens

KNMI Weersverwachting is alleen beschikbaar in de Nederlandse Taal, Ongeacht welke taal u kiest.
KNMI weather forecast is only available in the Dutch language, No matter what language you choose.







Meteo Oudkarspel - De weer weet site voor Langedijk

Blijf op de hoogte van het actuele weer, Keep up to date with the current weather.



Lokaal brandgevaar
CBI


Regionaal natuur brand risico: Meer informatie


Mijn Webcam 1 Meer informatie My webcam


Mijn Webcam 2 Meer informatie My webcam 2


Onweer radar Meer informatie blitzortung!


Regen radar Meer informatie rain snow radar


Bezoek onze andere website:

Template - Davis WeatherLink Version
Vantage Veu

Template - Meteotemplate

Template - HomeWeatherStation

PDøROK Multimedia

Meteo Broek Op Langedijk

Visual FM - Serious Internet RadioVisual FM - Serious Internet Radio

Lief LangedijkLief Langedijk

Dé fietsenmaker van Langedijk en omstrekenAxel Noort dé fietsenmaker

Ijsvereniging Volharding

Meteo Tuitjenhorn

Meteo Delfzijl

Weerstation Noordbergum

Weerstation ParkstadWeerstation Parkstad



Het weer levert geen direct gevaar op.    Er zijn geen waarschuwingen afgegeven.

METAR rapporten vliegvelden

   
EHKD - De Kooy (navy), Netherlands
Afstand tot: N 23 km
Gewijzigd: 24-Sep-2020 23:25
Grotendeels bewolkt  
Grotendeels bewolkt  
   Wind: ZO 18.5 km/h
Wind: ZO 18.5 km/h
Temperatuur: 13°C
Dauwpunt: 10°C
Vochtigheid: 82%
Barometer: 994 hPa
Bewolking: Grotendeels bewolkt
Zicht: meer dan 10 km
Bewolking: Gedeeltelijk bewolkt 6700 ft,
Grotendeels bewolkt 7200 ft,
Grotendeels bewolkt 7800 ft
EHKD 242125Z AUTO 14010KT 100V170 9999 SCT067 BKN072 BKN078 13/10 Q0994 BLU
EHAM - Amsterdam/Schiph, Netherlands
Afstand tot: Z 44 km
Gewijzigd: 24-Sep-2020 23:25
Helder  
Helder  
   Wind: ZZO 25.9 km/h
Wind: ZZO 25.9 km/h
Temperatuur: 13°C
Dauwpunt: 10°C
Vochtigheid: 82%
Barometer: 994 hPa
Zicht: meer dan 10 km
Bewolking: Helder
EHAM 242125Z 15014KT 120V180 CAVOK 13/10 Q0994 NOSIG
EHQE - Hoorn-A Sea, Netherlands
Afstand tot: WNW 50 km
Gewijzigd: 24-Sep-2020 23:25
Bewolking  
Bewolking  
   Wind: NW 7.4 km/h
Wind: NW 7.4 km/h
Temperatuur: 12°C
Dauwpunt: 9°C
Vochtigheid: 82%
Barometer: 993 hPa
Bewolking: Bewolking
Zicht: meer dan 10 km
Bewolking: Licht bewolkt 200 ft,
Licht bewolkt 1500 ft,
Grotendeels bewolkt 2100 ft,
Bewolking 2600 ft
EHQE 242125Z AUTO 31004KT 280V340 9999 FEW002 FEW015CB BKN021 OVC026 12/09 Q0993 RERA
EHVL - Vlieland Island, Netherlands
Afstand tot: N 58 km
Gewijzigd: 24-Sep-2020 23:34
Lichte (mot)regen, Grotendeels bewolkt  
Lichte (mot)regen, Grotendeels bewolkt  
   Wind: ZO 29.6 km/h
Wind: ZO 29.6 km/h
Temperatuur: 14°C
Dauwpunt: 12°C
Vochtigheid: 88%
Barometer: 994 hPa
Bewolking: Grotendeels bewolkt
Zicht: meer dan 10 km
Bewolking: Licht bewolkt 2600 ft,
Gedeeltelijk bewolkt 5000 ft,
Grotendeels bewolkt 8400 ft
EHVL 242134Z AUTO 13016KT 9999 -DZ FEW026 SCT050 BKN084 14/12 Q0994 BLU
EHLW - Leeuwarden Rnlaf, Netherlands
Afstand tot: NO 85 km
Gewijzigd: 24-Sep-2020 23:35
Wat regen mogelijk, Motregen, Bewolking  
Wat regen mogelijk, Motregen, Bewolking  
   Wind: ZO 13 km/h
Wind: ZO 13 km/h
Temperatuur: 13°C
Dauwpunt: 9°C
Vochtigheid: 77%
Barometer: 996 hPa
Bewolking: Bewolking
Zicht: meer dan 10 km
Bewolking: Licht bewolkt 1500 ft,
Bewolking 5800 ft
EHLW 242135Z AUTO 14007KT 100V160 9999 -RADZ FEW015CB OVC058 13/09 Q0996 BLU
EHRD - Rotterdam Airpor, Netherlands
Afstand tot: ZZW 88 km
Gewijzigd: 24-Sep-2020 23:25
Licht bewolkt  
Licht bewolkt  
   Wind: ZZO 20.4 km/h
Wind: ZZO 20.4 km/h
Temperatuur: 13°C
Dauwpunt: 11°C
Vochtigheid: 88%
Barometer: 994 hPa
Bewolking: Licht bewolkt
Zicht: meer dan 10 km
Bewolking: Licht bewolkt 1500 ft
EHRD 242125Z AUTO 16011KT 9999 FEW015CB 13/11 Q0994 NOSIG
EHKV - K14-Fa-1c Sea, Netherlands
Afstand tot: NW 100 km
Gewijzigd: 24-Sep-2020 23:25
Wat regen mogelijk, Motregen, Licht bewolkt  
Wat regen mogelijk, Motregen, Licht bewolkt  
   Wind: OZO 13 km/h
Wind: OZO 13 km/h
Temperatuur: 13°C
Dauwpunt: 10°C
Vochtigheid: 82%
Barometer: 994 hPa
Bewolking: Licht bewolkt
Zicht: meer dan 10 km
Bewolking: Licht bewolkt 1500 ft
EHKV 242125Z AUTO 12007KT 9999 -RADZ FEW015CB 13/10 Q0994
EHMG - L9-Ff-1 Sea, Netherlands
Afstand tot: N 101 km
Gewijzigd: 24-Sep-2020 23:25
Grotendeels bewolkt  
Grotendeels bewolkt  
   Wind: ZO 25.9 km/h
Wind: ZO 25.9 km/h
Temperatuur: 15°C
Dauwpunt: 12°C
Vochtigheid: 82%
Barometer: 996 hPa
Bewolking: Grotendeels bewolkt
Zicht: meer dan 10 km
Bewolking: Licht bewolkt 1300 ft,
Licht bewolkt 1500 ft,
Gedeeltelijk bewolkt 2000 ft,
Grotendeels bewolkt 3400 ft
EHMG 242125Z AUTO 14014KT 9999 FEW013 FEW015CB SCT020 BKN034 15/12 Q0996
EHDL - Deelen Rnlafb, Netherlands
Afstand tot: ZO 102 km
Gewijzigd: 24-Sep-2020 23:25
Bewolking  
Bewolking  
   Wind: ZO 16.7 km/h
Wind: ZO 16.7 km/h
Temperatuur: 13°C
Dauwpunt: 11°C
Vochtigheid: 88%
Barometer: 996 hPa
Bewolking: Bewolking
Zicht: meer dan 10 km
Bewolking: Grotendeels bewolkt 5700 ft,
Bewolking 6200 ft
EHDL 242125Z AUTO 14009KT 060V180 9999 BKN057 OVC062 13/11 Q0996 BLU
EHPG - P11-B Sea, Netherlands
Afstand tot: WZW 106 km
Gewijzigd: 24-Sep-2020 23:25
Grotendeels bewolkt  
Grotendeels bewolkt  
   Wind: NNW 11.1 km/h
Wind: NNW 11.1 km/h
Temperatuur: 13°C
Dauwpunt: 10°C
Vochtigheid: 82%
Barometer: 993 hPa
Bewolking: Grotendeels bewolkt
Zicht: meer dan 10 km
Bewolking: Licht bewolkt 100 ft,
Licht bewolkt 1500 ft,
Grotendeels bewolkt 3200 ft,
Grotendeels bewolkt 4000 ft
EHPG 242125Z AUTO 34006KT 260V360 9999 FEW001 FEW015CB BKN032 BKN040 13/10 Q0993 REDZ
EHMA - Awg-1 Sea, Netherlands
Afstand tot: NO 116 km
Gewijzigd: 24-Sep-2020 23:25
Licht bewolkt  
Licht bewolkt  
   Wind: OZO 31.5 km/h
Wind: OZO 31.5 km/h
Temperatuur: 15°C
Dauwpunt: 10°C
Vochtigheid: 72%
Barometer: 996 hPa
Bewolking: Licht bewolkt
Zicht: meer dan 10 km
Bewolking: Licht bewolkt 4800 ft
EHMA 242125Z AUTO 11017KT 9999 FEW048 15/10 Q0996
EHSC - Goeree Le Sea, Netherlands
Afstand tot: ZW 116 km
Gewijzigd: 24-Sep-2020 23:25
  
  
   Wind: Zuiden 42.6 km/h
Wind: Zuiden 42.6 km/h
Temperatuur: 15°C
Dauwpunt: 11°C
Vochtigheid: 77%
Barometer: 993 hPa
Zicht: meer dan 10 km
EHSC 242125Z AUTO 18023KT 9999 ///////// 15/11 Q0993 W18/H13
EHJR - K13-A Sea, Netherlands
Afstand tot: WNW 120 km
Gewijzigd: 24-Sep-2020 23:25
  
  
   Wind: Kalm
Wind: Kalm
Temperatuur: 14°C
Dauwpunt: 8°C
Vochtigheid: 67%
Barometer: 993 hPa
EHJR 242125Z AUTO 00000KT //// // ///////// 14/08 Q0993 RE// W17/H17
EHGG - Groningen/Eelde, Netherlands
Afstand tot: ONO 126 km
Gewijzigd: 24-Sep-2020 23:25
Wat regen mogelijk, Licht bewolkt  
Wat regen mogelijk, Licht bewolkt  
   Wind: ZO 7.4 km/h
Wind: ZO 7.4 km/h
Temperatuur: 13°C
Dauwpunt: 8°C
Vochtigheid: 72%
Barometer: 997 hPa
Bewolking: Licht bewolkt
Zicht: meer dan 10 km
Bewolking: Licht bewolkt 2000 ft
EHGG 242125Z AUTO 13004KT 090V180 9999 -RA FEW020CB 13/08 Q0997
EHGR - Gilze-Rijen Rnla, Netherlands
Afstand tot: Z 128 km
Gewijzigd: 24-Sep-2020 23:30
Grotendeels bewolkt  
Grotendeels bewolkt  
   Wind: ZZO 9.3 km/h
Wind: ZZO 9.3 km/h
Temperatuur: 13°C
Dauwpunt: 12°C
Vochtigheid: 94%
Barometer: 995 hPa
Bewolking: Grotendeels bewolkt
Zicht: meer dan 10 km
Bewolking: Licht bewolkt 1400 ft,
Licht bewolkt 1500 ft,
Gedeeltelijk bewolkt 5000 ft,
Grotendeels bewolkt 5700 ft
EHGR 242130Z AUTO 16005KT 130V210 9999 FEW014 FEW015CB SCT050 BKN057 13/12 Q0995 BLU
EHSA - Euro Platform, Netherlands
Afstand tot: ZW 130 km
Gewijzigd: 24-Sep-2020 23:25
Motregen  
Motregen  
   Wind: ZW 5.6 km/h
Wind: ZW 5.6 km/h
Temperatuur: 13°C
Dauwpunt: 10°C
Vochtigheid: 82%
Barometer: 993 hPa
Zicht: meer dan 10 km
EHSA 242125Z AUTO 22003KT 180V320 9999 DZ ///////// 13/10 Q0993 W16/H14
EHVK - Volkel Rnlafb, Netherlands
Afstand tot: ZZO 135 km
Gewijzigd: 24-Sep-2020 23:25
Grotendeels bewolkt  
Grotendeels bewolkt  
   Wind: ZZO 13 km/h
Wind: ZZO 13 km/h
Temperatuur: 14°C
Dauwpunt: 11°C
Vochtigheid: 82%
Barometer: 996 hPa
Bewolking: Grotendeels bewolkt
Zicht: meer dan 10 km
Bewolking: Gedeeltelijk bewolkt 3800 ft,
Grotendeels bewolkt 4200 ft,
Grotendeels bewolkt 4700 ft
EHVK 242125Z AUTO 15007KT 110V190 9999 SCT038 BKN042 BKN047 14/11 Q0996 BLU
EHWO - Woensdrecht Rnla, Netherlands
Afstand tot: ZZW 144 km
Gewijzigd: 24-Sep-2020 23:36
Motregen, Regen, Grotendeels bewolkt  
Motregen, Regen, Grotendeels bewolkt  
   Wind: Zuiden 11.1 km/h
Wind: Zuiden 11.1 km/h
Temperatuur: 12°C
Dauwpunt: 10°C
Vochtigheid: 88%
Barometer: 995 hPa
Bewolking: Grotendeels bewolkt
Zicht: meer dan 10 km
Bewolking: Licht bewolkt 3300 ft,
Gedeeltelijk bewolkt 3700 ft,
Grotendeels bewolkt 5000 ft
EHWO 242136Z AUTO 19006KT 140V230 9999 DZRA FEW033 SCT037 BKN050 12/10 Q0995 BLU
EHEH - Eindhoven Rnlafb, Netherlands
Afstand tot: ZZO 146 km
Gewijzigd: 24-Sep-2020 23:25
Bewolking  
Bewolking  
   Wind: ZZO 16.7 km/h
Wind: ZZO 16.7 km/h
Temperatuur: 14°C
Dauwpunt: 11°C
Vochtigheid: 82%
Barometer: 995 hPa
Bewolking: Bewolking
Bewolking: Gedeeltelijk bewolkt 9800 ft,
Bewolking 12000 ft
EHEH 242125Z AUTO 16009KT 120V190 //// // SCT098 OVC120 14/11 Q0995 RE//
EDLV - Niederrhein, Germany
Afstand tot: ZO 154 km
Gewijzigd: 24-Sep-2020 23:20
Helder  
Helder  
   Wind: ZO 11.1 km/h
Wind: ZO 11.1 km/h
Temperatuur: 13°C
Dauwpunt: 11°C
Vochtigheid: 88%
Barometer: 996 hPa
Zicht: meer dan 10 km
Bewolking: Helder
EDLV 242120Z 13006KT CAVOK 13/11 Q0996
 

Script ontwikkeld door  Saratoga-weather.org Aangepast voor de template door  Weerstation Leuven

U vindt ons ook hier:

Vereniging voor Weerkunde en Klimatologie

Het Weer Aktueel

WOW Nederland KNMI

UK Metoffice

European Weather Network

WeatherCloud

Weather Underground

Benelux Weer Netwerk

AWEKAS

WeatherlinkIP

Citizen Weather Observer Program (CWOP)

HAMweather, WeatherForYou, PWS Weather

        

Apparatuur in gebruik:

Weerstation
Davis - Vantage Veu

Weerprogramma
Meteobridge

Weercomputer
Carambola2 - MeteroBridge Pro (black)

Webleverancier
1Eurohosting

Hardwareleverancier 1
Uurwerk- & Meteospecialist Vlasma

Hardwareleverancier 2
Weerhuisje

Davis - Vantage Veu

Meteobridge

Carambola2 - MeteroBridge Pro (black)

1Eurohosting

Uurwerk- & Meteospecialist Vlasma

Weerhuisje


Alles over het weer rondom het weerstation van Meteo Oudkarspel, vind je hier. Dus alles onder 1 dak.

Everything about the weather around the Meteo Oudkarspel weather station can be found here. So everything under one roof..

Dus kom regelmatig terug, So come back regularly.


# #---------------------- version history # 3.20 2015-10-12 release 2.8b version